East Lynn, Illinois
Current Conditions -  °F | °C
As of 1:15 AM on Wednesday 22 Oct 2014 (Local Time) from KDNV Reporting Station
Clear Clear  
Wind Chill: 36°   Ceiling: Unl
Heat Index: 40°   Visibility: 10mi
Dew Point: 36°   Wind: 5mph
Humidity: 86%   Direction: 50°NE
Pressure: 30.22"   Gusts: NA
Location:  40.47°N, 87.8°W
Report Text: KDNV 220615Z AUTO 05004KT 10SM CLR 04/02 A3022 RMK AO2 T00430022
Loading
Personal Weather Stations






























Interactive Weather Map
Tropical Storm Tracking
New forecast layout! Learn more

10-Day Weather Forecast

Advertisements
Track Severe Weather on mobile